Time;durP1;ratioP1;P1;durP2;ratioP2;P2;SDS_P1;SDS_P2;PMS_P1;PMS_P2;Temp;Humidity;BMP_temperature;BMP_pressure;BME280_temperature;BME280_humidity;BME280_pressure;Samples;Min_cycle;Max_cycle;Signal;HPM_P1;HPM_P2
2022/10/26 00:02:30;;;;;;;247.68;159.55;;;;;;;22.03;73.19;98659.97;4984333;28;20053;-65
2022/10/26 00:05:19;;;;;;;246.05;156.60;;;;;;;22.05;73.40;98664.06;4988137;28;20525;-65
2022/10/26 00:08:01;;;;;;;234.27;150.32;;;;;;;21.99;73.35;98665.22;4979266;28;20045;-65
2022/10/26 00:10:50;;;;;;;215.30;142.73;;;;;;;22.02;73.65;98661.88;4966866;28;20114;-65
2022/10/26 00:13:32;;;;;;;215.23;134.82;;;;;;;22.04;73.71;98670.59;4987110;28;20057;-65
2022/10/26 00:16:27;;;;;;;193.23;121.78;;;;;;;21.97;73.80;98672.88;4979358;28;20865;-64
2022/10/26 00:19:15;;;;;;;165.90;105.25;;;;;;;22.02;73.75;98672.81;4967076;28;20055;-65
2022/10/26 00:21:57;;;;;;;176.60;105.85;;;;;;;22.01;73.88;98667.63;4966271;28;20652;-65
2022/10/26 00:24:46;;;;;;;178.73;109.85;;;;;;;22.07;73.79;98678.22;4950100;28;20063;-65
2022/10/26 00:27:35;;;;;;;207.00;129.73;;;;;;;22.03;74.11;98688.13;4987787;28;20058;-65
2022/10/26 00:30:17;;;;;;;224.10;143.75;;;;;;;21.88;74.63;98683.63;4969525;28;20054;-64
2022/10/26 00:33:15;;;;;;;256.52;166.38;;;;;;;22.00;74.10;98683.22;4986015;28;20097;-65
2022/10/26 00:35:54;;;;;;;274.23;171.07;;;;;;;21.74;74.41;98684.59;4969293;28;20743;-66
2022/10/26 00:38:51;;;;;;;256.52;169.75;;;;;;;21.59;74.58;98689.13;4969312;28;20496;-65
2022/10/26 00:41:36;;;;;;;272.60;180.48;;;;;;;21.45;75.25;98693.59;4966210;28;20109;-66
2022/10/26 00:44:43;;;;;;;272.25;190.60;;;;;;;21.79;74.41;98700.94;4969162;28;20046;-65
2022/10/26 00:47:52;;;;;;;277.55;196.88;;;;;;;21.74;74.00;98703.72;4988676;28;20074;-66
2022/10/26 00:50:52;;;;;;;262.75;183.05;;;;;;;21.81;73.98;98704.19;4986141;28;20050;-65
2022/10/26 00:53:29;;;;;;;255.07;177.03;;;;;;;21.69;74.11;98716.31;4969842;28;20108;-65
2022/10/26 00:56:25;;;;;;;245.00;160.38;;;;;;;21.78;74.15;98713.78;4986262;28;20054;-65
2022/10/26 00:59:05;;;;;;;244.57;154.48;;;;;;;21.79;73.81;98714.59;4986563;28;20058;-65
2022/10/26 01:02:02;;;;;;;233.90;142.27;;;;;;;21.79;74.05;98717.34;4953060;28;20135;-65
2022/10/26 01:04:52;;;;;;;230.98;139.15;;;;;;;21.77;73.50;98714.88;4967093;28;20842;-65
2022/10/26 01:07:34;;;;;;;221.50;132.98;;;;;;;21.78;73.75;98730.19;4951452;28;20050;-65
2022/10/26 01:10:26;;;;;;;214.63;129.43;;;;;;;21.93;73.43;98731.94;4966345;28;20089;-67
2022/10/26 01:13:09;;;;;;;219.02;129.63;;;;;;;21.87;73.21;98735.81;4973812;28;20045;-67
2022/10/26 01:16:18;;;;;;;218.00;129.25;;;;;;;21.80;73.77;98740.78;4945293;28;20468;-66
2022/10/26 01:19:05;;;;;;;218.73;125.93;;;;;;;21.84;73.72;98736.38;4949433;28;20149;-66
2022/10/26 01:22:05;;;;;;;204.30;119.60;;;;;;;21.91;73.19;98739.59;4960697;28;20129;-65
2022/10/26 01:25:24;;;;;;;200.80;117.53;;;;;;;21.96;73.13;98745.03;4985135;28;20054;-66
2022/10/26 01:29:05;;;;;;;201.27;116.20;;;;;;;22.00;72.98;98748.81;4985685;28;20362;-66
2022/10/26 01:32:11;;;;;;;182.88;111.22;;;;;;;22.04;73.07;98758.06;4943456;28;20054;-65
2022/10/26 01:35:12;;;;;;;188.68;111.38;;;;;;;22.12;72.81;98758.53;4985756;28;20133;-65
2022/10/26 01:38:30;;;;;;;177.07;108.07;;;;;;;22.10;72.99;98767.03;4968397;28;20058;-65
2022/10/26 01:41:33;;;;;;;179.80;105.68;;;;;;;22.02;73.87;98770.38;4931847;28;20046;-66
2022/10/26 01:44:31;;;;;;;170.45;104.53;;;;;;;22.15;73.09;98774.38;4954445;28;20140;-66
2022/10/26 01:47:16;;;;;;;172.45;102.38;;;;;;;22.21;73.06;98779.47;4961318;28;20034;-66
2022/10/26 01:50:08;;;;;;;180.18;105.45;;;;;;;22.17;73.25;98785.84;4985514;28;20097;-66
2022/10/26 01:52:51;;;;;;;168.90;103.90;;;;;;;22.20;73.68;98788.81;4985243;28;20474;-66
2022/10/26 01:55:59;;;;;;;176.68;103.43;;;;;;;22.30;73.30;98790.66;4965066;28;20655;-66
2022/10/26 01:59:12;;;;;;;179.43;102.82;;;;;;;22.41;72.99;98794.91;4949982;28;20046;-65
2022/10/26 02:02:25;;;;;;;177.70;101.78;;;;;;;22.50;73.37;98799.72;4964696;28;20225;-66
2022/10/26 02:05:45;;;;;;;171.80;103.60;;;;;;;22.57;73.01;98806.47;4964487;28;20050;-66
2022/10/26 02:08:46;;;;;;;165.85;102.25;;;;;;;22.62;72.94;98802.88;4982796;28;22250;-66
2022/10/26 02:11:58;;;;;;;171.90;101.85;;;;;;;22.55;73.50;98808.69;4967450;28;20066;-65
2022/10/26 02:15:10;;;;;;;182.68;103.22;;;;;;;22.75;72.30;98807.63;4946414;28;20563;-65
2022/10/26 02:17:57;;;;;;;171.50;103.47;;;;;;;22.84;72.01;98822.31;4980626;28;20053;-65
2022/10/26 02:20:53;;;;;;;182.65;104.68;;;;;;;22.98;72.32;98819.66;4966502;28;20110;-65
2022/10/26 02:23:38;;;;;;;168.45;103.65;;;;;;;23.08;72.17;98821.47;4968569;28;20486;-66
2022/10/26 02:26:29;;;;;;;177.02;102.00;;;;;;;23.33;71.71;98833.19;4964623;28;20059;-65
2022/10/26 02:29:15;;;;;;;161.30;100.53;;;;;;;23.37;72.06;98834.22;4966403;28;20054;-66
2022/10/26 02:32:13;;;;;;;165.77;99.43;;;;;;;23.34;72.15;98838.38;4967079;28;20066;-66
2022/10/26 02:34:52;;;;;;;171.52;100.47;;;;;;;23.43;71.90;98838.56;4966271;28;20058;-66
2022/10/26 02:37:46;;;;;;;176.98;101.90;;;;;;;23.51;71.86;98842.56;4951432;28;20062;-66
2022/10/26 02:40:32;;;;;;;179.00;101.50;;;;;;;23.73;71.48;98852.91;4941937;28;20558;-66
2022/10/26 02:43:30;;;;;;;175.80;98.32;;;;;;;23.90;70.41;98855.94;4964251;28;20038;-67
2022/10/26 02:46:29;;;;;;;182.43;105.32;;;;;;;23.98;70.28;98855.28;4949060;28;20062;-65
2022/10/26 02:49:05;;;;;;;184.30;105.90;;;;;;;24.06;70.31;98853.78;4965537;28;20407;-65
2022/10/26 02:52:15;;;;;;;162.38;102.93;;;;;;;24.36;69.40;98865.31;4984906;28;20551;-67
2022/10/26 02:54:59;;;;;;;197.75;112.95;;;;;;;24.39;69.41;98868.28;4987537;28;20061;-64
2022/10/26 02:57:54;;;;;;;193.85;110.40;;;;;;;24.47;69.99;98871.47;4965654;28;20053;-65
2022/10/26 03:00:37;;;;;;;199.70;117.57;;;;;;;24.49;70.46;98875.50;4964266;28;20150;-65
2022/10/26 03:03:26;;;;;;;267.92;121.50;;;;;;;24.66;69.71;98880.47;4943659;28;20062;-66
2022/10/26 03:06:08;;;;;;;229.40;117.65;;;;;;;24.59;70.21;98880.03;4969690;28;20057;-68
2022/10/26 03:08:57;;;;;;;204.32;115.40;;;;;;;24.75;69.78;98895.09;4973536;28;20393;-66
2022/10/26 03:11:48;;;;;;;188.05;114.60;;;;;;;24.92;70.09;98894.50;4986945;28;20058;-66
2022/10/26 03:14:30;;;;;;;191.40;112.10;;;;;;;24.84;70.27;98899.88;4933270;29;20046;-66
2022/10/26 03:17:19;;;;;;;190.35;115.47;;;;;;;24.84;68.86;98897.97;4987543;28;20061;-67
2022/10/26 03:20:01;;;;;;;174.77;110.70;;;;;;;25.21;69.61;98901.63;4970081;28;20449;-66
2022/10/26 03:22:55;;;;;;;176.48;110.07;;;;;;;25.49;68.05;98898.88;4971673;28;20046;-67
2022/10/26 03:25:37;;;;;;;159.90;102.28;;;;;;;25.49;65.33;98896.94;4965065;28;20046;-67
2022/10/26 03:28:26;;;;;;;166.50;96.97;;;;;;;25.79;64.17;98897.38;4987754;28;20109;-65
2022/10/26 03:31:08;;;;;;;157.82;89.75;;;;;;;26.05;61.26;98902.31;4986214;28;20058;-69
2022/10/26 03:33:57;;;;;;;153.05;92.68;;;;;;;26.12;63.84;98899.91;4979509;28;20438;-68
2022/10/26 03:36:39;;;;;;;142.85;88.75;;;;;;;26.19;60.39;98908.56;4976273;28;20047;-69
2022/10/26 03:39:28;;;;;;;136.00;82.70;;;;;;;26.51;59.68;98915.72;4968445;28;20055;-68
2022/10/26 03:42:23;;;;;;;133.73;78.50;;;;;;;26.65;59.94;98915.66;4956036;28;20047;-70
2022/10/26 03:44:59;;;;;;;128.75;70.63;;;;;;;26.85;57.59;98913.53;4962083;28;20568;-69
2022/10/26 03:47:49;;;;;;;125.32;77.28;;;;;;;26.82;61.19;98916.91;4986065;28;20050;-69
2022/10/26 03:50:38;;;;;;;129.70;73.97;;;;;;;26.86;58.40;98918.69;4987704;28;20112;-69
2022/10/26 03:53:27;;;;;;;130.60;77.93;;;;;;;27.01;58.87;98933.19;4998714;28;20132;-69
2022/10/26 03:56:09;;;;;;;121.18;72.90;;;;;;;27.28;56.94;98921.94;4971547;28;20532;-69
2022/10/26 03:59:04;;;;;;;126.55;76.43;;;;;;;27.55;55.82;98920.06;5000334;28;20835;-69
2022/10/26 04:01:53;;;;;;;130.52;71.85;;;;;;;28.05;54.28;98921.59;4987557;28;20062;-70
2022/10/26 04:04:37;;;;;;;111.95;62.95;;;;;;;28.43;52.72;98921.75;4987127;28;20056;-69
2022/10/26 04:07:33;;;;;;;106.18;56.72;;;;;;;28.90;50.49;98929.25;4982503;28;20141;-69
2022/10/26 04:10:24;;;;;;;98.57;54.42;;;;;;;28.94;50.28;98934.94;4982818;28;20470;-70
2022/10/26 04:13:12;;;;;;;102.20;55.17;;;;;;;29.13;50.16;98937.34;4969290;28;20081;-69
2022/10/26 04:16:01;;;;;;;88.85;52.83;;;;;;;29.46;48.66;98934.72;4965138;28;20046;-69
2022/10/26 04:18:44;;;;;;;84.88;48.97;;;;;;;29.76;48.45;98935.53;4967005;28;20078;-69
2022/10/26 04:21:34;;;;;;;77.90;44.25;;;;;;;30.02;46.12;98940.06;4956645;28;20058;-69
2022/10/26 04:24:23;;;;;;;82.50;47.08;;;;;;;30.28;47.30;98941.78;4984841;28;20050;-68
2022/10/26 04:27:05;;;;;;;87.15;51.58;;;;;;;30.16;45.57;98946.13;4975410;28;20069;-69
2022/10/26 04:29:54;;;;;;;74.97;47.90;;;;;;;30.58;46.98;98945.28;4985809;28;20042;-69
2022/10/26 04:32:36;;;;;;;85.50;48.88;;;;;;;30.72;48.77;98947.72;4965343;28;20050;-67
2022/10/26 04:35:25;;;;;;;84.53;46.20;;;;;;;30.69;45.11;98946.47;4968650;28;20043;-69
2022/10/26 04:38:09;;;;;;;81.50;46.35;;;;;;;31.37;43.90;98947.94;4955293;28;20046;-69
2022/10/26 04:40:57;;;;;;;73.25;47.47;;;;;;;31.06;47.35;98942.97;4984618;28;20054;-69
2022/10/26 04:43:39;;;;;;;81.47;47.05;;;;;;;31.52;44.06;98943.69;4963809;28;20065;-69
2022/10/26 04:46:28;;;;;;;80.85;48.10;;;;;;;31.78;44.61;98951.63;4966108;28;20054;-68
2022/10/26 04:49:17;;;;;;;83.75;51.65;;;;;;;31.51;40.62;98951.22;4955735;28;20062;-66
2022/10/26 04:52:06;;;;;;;88.90;50.78;;;;;;;32.00;43.78;98944.75;4986475;28;20054;-70
2022/10/26 04:54:55;;;;;;;86.18;54.80;;;;;;;31.99;45.38;98945.91;4984856;28;20049;-70
2022/10/26 04:57:44;;;;;;;97.88;55.25;;;;;;;32.01;41.79;98935.28;4964389;28;20469;-70
2022/10/26 05:00:29;;;;;;;105.85;56.45;;;;;;;31.83;38.79;98943.06;4985032;28;25394;-70
2022/10/26 05:03:17;;;;;;;97.07;58.42;;;;;;;32.21;45.00;98947.38;4972238;28;20473;-69
2022/10/26 05:06:06;;;;;;;104.88;56.50;;;;;;;32.32;42.77;98939.34;4985643;28;20074;-71
2022/10/26 05:09:01;;;;;;;100.03;60.42;;;;;;;32.47;44.07;98938.56;4985877;28;20054;-70
2022/10/26 05:11:50;;;;;;;94.00;59.47;;;;;;;32.55;42.99;98940.38;4971360;28;20064;-70
2022/10/26 05:14:39;;;;;;;113.45;64.32;;;;;;;32.26;45.96;98944.34;4987306;28;20065;-71
2022/10/26 05:17:28;;;;;;;99.25;57.22;;;;;;;32.32;39.80;98936.56;4987363;28;20045;-70
2022/10/26 05:20:17;;;;;;;101.88;58.28;;;;;;;32.30;41.72;98947.22;4986666;28;20050;-71
2022/10/26 05:23:11;;;;;;;93.57;54.45;;;;;;;32.05;42.56;98944.53;4984014;28;20077;-68
2022/10/26 05:26:01;;;;;;;92.55;50.22;;;;;;;32.29;40.69;98929.75;4985956;28;20049;-70
2022/10/26 05:28:43;;;;;;;81.00;44.95;;;;;;;32.58;41.63;98939.72;4987019;28;20053;-69
2022/10/26 05:31:32;;;;;;;60.22;34.92;;;;;;;32.34;37.39;98937.81;4967753;28;20050;-69
2022/10/26 05:34:14;;;;;;;57.67;33.47;;;;;;;32.62;42.00;98944.53;4967987;28;20382;-69
2022/10/26 05:37:03;;;;;;;63.00;35.67;;;;;;;32.73;40.24;98943.69;4984195;28;20055;-69
2022/10/26 05:39:59;;;;;;;60.10;36.67;;;;;;;32.96;39.08;98938.31;4965222;28;20099;-69
2022/10/26 05:42:35;;;;;;;77.13;36.85;;;;;;;33.13;39.52;98937.19;4985290;28;20137;-69
2022/10/26 05:45:24;;;;;;;65.40;38.08;;;;;;;33.19;39.71;98940.50;4981414;28;20065;-69
2022/10/26 05:48:13;;;;;;;72.90;40.55;;;;;;;32.92;39.06;98937.41;4978559;28;20140;-70
2022/10/26 05:51:09;;;;;;;69.13;39.22;;;;;;;33.04;39.13;98933.75;4967066;28;20140;-70
2022/10/26 05:53:45;;;;;;;75.10;41.70;;;;;;;33.11;40.76;98927.56;4986402;28;20042;-69
2022/10/26 05:56:40;;;;;;;68.68;43.03;;;;;;;32.95;38.21;98930.34;4970788;28;20112;-70
2022/10/26 05:59:23;;;;;;;85.00;46.92;;;;;;;33.07;38.17;98921.88;4982166;28;20058;-69
2022/10/26 06:02:38;;;;;;;86.55;52.65;;;;;;;32.82;39.53;98928.81;4985018;28;20053;-70
2022/10/26 06:05:31;;;;;;;89.57;51.65;;;;;;;32.47;40.01;98927.47;4970816;28;20068;-70
2022/10/26 06:08:29;;;;;;;92.75;55.15;;;;;;;32.77;40.61;98927.06;4982104;28;20046;-68
2022/10/26 06:11:18;;;;;;;81.32;46.65;;;;;;;32.47;38.93;98918.34;4986084;28;20050;-68
2022/10/26 06:14:08;;;;;;;78.10;47.45;;;;;;;32.42;39.71;98924.13;4986124;28;20397;-68
2022/10/26 06:17:03;;;;;;;83.95;46.45;;;;;;;32.48;41.41;98917.94;4987445;28;20062;-69
2022/10/26 06:20:20;;;;;;;81.35;42.72;;;;;;;32.55;39.77;98909.00;4972807;28;20128;-68
2022/10/26 06:23:32;;;;;;;72.03;39.38;;;;;;;32.64;40.18;98904.13;4972950;28;20054;-68
2022/10/26 06:26:57;;;;;;;60.00;33.80;;;;;;;32.88;37.97;98902.34;4988938;28;20066;-70
2022/10/26 06:30:01;;;;;;;61.90;30.70;;;;;;;33.03;35.02;98906.28;4987708;28;20057;-69
2022/10/26 06:32:54;;;;;;;59.13;27.33;;;;;;;32.91;34.86;98908.00;4986791;28;20154;-70
2022/10/26 06:36:08;;;;;;;53.08;27.00;;;;;;;33.02;38.18;98907.44;4967137;28;20047;-69
2022/10/26 06:39:12;;;;;;;60.97;23.45;;;;;;;33.05;34.63;98895.63;4974051;28;20038;-69
2022/10/26 06:41:56;;;;;;;48.58;22.95;;;;;;;33.21;37.42;98896.44;4933920;28;20053;-70
2022/10/26 06:44:45;;;;;;;41.63;23.00;;;;;;;32.94;34.01;98893.38;4957181;28;20133;-69
2022/10/26 06:48:02;;;;;;;47.40;22.73;;;;;;;32.94;34.50;98890.59;4991224;28;20134;-71
2022/10/26 06:50:58;;;;;;;47.80;20.88;;;;;;;32.76;35.95;98887.38;4991208;28;20073;-70
2022/10/26 06:54:20;;;;;;;41.30;21.52;;;;;;;32.99;38.27;98888.72;4991512;28;20104;-70
2022/10/26 06:57:09;;;;;;;45.78;22.63;;;;;;;33.26;34.83;98879.47;4955859;28;20074;-71
2022/10/26 07:00:02;;;;;;;41.80;21.83;;;;;;;33.22;34.19;98880.56;4971590;28;20668;-70
2022/10/26 07:02:50;;;;;;;44.50;20.88;;;;;;;33.17;33.45;98870.50;5000111;28;20050;-70
2022/10/26 07:05:34;;;;;;;43.78;21.80;;;;;;;33.06;32.81;98866.66;4989614;28;20046;-70
2022/10/26 07:08:30;;;;;;;41.65;21.60;;;;;;;33.44;35.84;98867.94;4988768;28;20455;-70
2022/10/26 07:11:08;;;;;;;39.78;20.67;;;;;;;33.00;35.48;98862.50;4988186;28;20058;-69
2022/10/26 07:13:56;;;;;;;43.85;23.10;;;;;;;33.23;34.40;98855.16;4969086;28;20046;-70
2022/10/26 07:16:38;;;;;;;50.53;22.38;;;;;;;32.96;36.72;98860.47;4990898;28;20058;-72
2022/10/26 07:19:27;;;;;;;37.35;22.00;;;;;;;32.85;34.51;98853.03;4984086;28;20152;-70
2022/10/26 07:22:09;;;;;;;43.60;23.70;;;;;;;33.05;33.58;98851.94;4985275;28;20050;-70
2022/10/26 07:24:58;;;;;;;45.47;21.05;;;;;;;32.79;33.81;98844.16;4968617;28;20101;-70
2022/10/26 07:27:43;;;;;;;40.63;19.85;;;;;;;32.67;37.64;98847.81;4972245;28;20065;-70
2022/10/26 07:30:39;;;;;;;38.55;19.70;;;;;;;32.61;33.91;98842.91;4989503;28;20140;-69
2022/10/26 07:33:15;;;;;;;33.63;19.58;;;;;;;33.21;34.12;98840.81;4989466;28;20235;-70
2022/10/26 07:36:11;;;;;;;42.47;20.13;;;;;;;33.15;35.51;98839.47;4989773;28;20069;-70
2022/10/26 07:38:50;;;;;;;36.00;19.17;;;;;;;33.18;33.98;98833.19;4973976;28;20054;-70
2022/10/26 07:41:44;;;;;;;37.80;18.60;;;;;;;33.07;33.34;98834.88;4989444;28;20405;-70
2022/10/26 07:44:20;;;;;;;30.70;17.90;;;;;;;32.90;32.97;98831.31;4998459;28;20057;-70
2022/10/26 07:47:08;;;;;;;42.15;19.25;;;;;;;32.79;33.23;98821.94;4974153;28;20054;-69
2022/10/26 07:49:57;;;;;;;34.10;17.92;;;;;;;33.04;33.21;98816.97;4973354;28;20668;-70
2022/10/26 07:52:40;;;;;;;29.50;17.90;;;;;;;32.91;32.25;98815.47;4988626;28;20085;-70
2022/10/26 07:55:29;;;;;;;35.05;18.60;;;;;;;32.72;33.85;98813.41;4949470;28;20045;-70
2022/10/26 07:58:11;;;;;;;38.63;19.25;;;;;;;33.08;33.77;98808.72;4987504;28;20038;-70
2022/10/26 08:01:01;;;;;;;46.17;19.70;;;;;;;33.07;33.54;98818.19;4988766;28;20053;-70
2022/10/26 08:03:43;;;;;;;37.55;20.63;;;;;;;32.92;33.83;98806.75;4971609;28;20046;-68
2022/10/26 08:06:32;;;;;;;43.85;19.70;;;;;;;32.90;35.02;98795.16;4989071;28;20100;-70
2022/10/26 08:09:14;;;;;;;39.25;19.77;;;;;;;33.00;32.94;98793.84;4989500;28;20679;-70
2022/10/26 08:12:03;;;;;;;40.85;19.13;;;;;;;32.61;33.92;98787.34;4989302;28;20042;-70
2022/10/26 08:14:45;;;;;;;43.38;20.15;;;;;;;32.77;33.78;98783.38;4972055;28;20421;-69
2022/10/26 08:17:35;;;;;;;39.45;18.70;;;;;;;32.69;33.13;98784.34;5002918;28;20054;-70
2022/10/26 08:20:17;;;;;;;36.33;18.05;;;;;;;33.05;33.00;98774.06;5008698;28;20054;-70
2022/10/26 08:23:07;;;;;;;37.13;17.98;;;;;;;32.74;32.24;98775.75;5003576;28;20053;-70
2022/10/26 08:25:49;;;;;;;31.25;16.48;;;;;;;33.11;33.03;98771.84;4988636;28;20081;-70
2022/10/26 08:28:38;;;;;;;33.00;17.92;;;;;;;33.01;33.73;98775.16;4957802;28;20054;-70
2022/10/26 08:31:34;;;;;;;40.45;19.63;;;;;;;32.65;32.88;98769.56;4988769;28;20077;-70
2022/10/26 08:34:10;;;;;;;52.15;21.45;;;;;;;32.87;33.99;98776.47;4987463;28;20046;-70
2022/10/26 08:37:04;;;;;;;40.03;19.15;;;;;;;32.82;33.37;98773.16;4967949;28;20050;-70
2022/10/26 08:39:40;;;;;;;31.75;18.63;;;;;;;32.60;33.58;98769.88;4972296;28;20147;-70
2022/10/26 08:42:39;;;;;;;40.70;17.33;;;;;;;32.64;33.79;98761.63;4987098;28;20124;-70
2022/10/26 08:45:27;;;;;;;32.38;16.98;;;;;;;32.62;35.19;98761.97;5004569;28;20149;-69
2022/10/26 08:48:23;;;;;;;35.90;18.20;;;;;;;32.67;35.70;98767.25;4974312;28;20051;-68
2022/10/26 08:51:36;;;;;;;41.92;18.20;;;;;;;32.78;34.32;98765.53;4960760;28;20062;-71
2022/10/26 08:54:40;;;;;;;37.33;19.05;;;;;;;32.65;33.79;98754.88;4984181;28;20533;-70
2022/10/26 08:57:40;;;;;;;33.45;17.48;;;;;;;32.56;34.64;98757.81;4987222;28;20062;-70
2022/10/26 09:00:29;;;;;;;30.67;17.55;;;;;;;32.47;36.66;98748.88;4987659;28;20144;-70
2022/10/26 09:03:19;;;;;;;34.33;17.05;;;;;;;32.49;34.87;98747.34;4985107;28;20425;-70
2022/10/26 09:06:11;;;;;;;36.10;17.58;;;;;;;32.53;36.09;98750.22;4988292;28;20058;-70
2022/10/26 09:09:00;;;;;;;28.48;18.20;;;;;;;32.55;33.98;98743.13;4962125;28;20046;-71
2022/10/26 09:12:08;;;;;;;35.55;18.15;;;;;;;32.49;34.48;98741.00;4987966;28;20051;-71
2022/10/26 09:15:16;;;;;;;41.58;19.23;;;;;;;32.56;35.62;98742.00;4987044;28;20054;-70
2022/10/26 09:18:27;;;;;;;34.97;18.15;;;;;;;32.56;34.36;98739.22;4971387;28;20579;-71
2022/10/26 09:21:40;;;;;;;38.30;18.75;;;;;;;32.44;36.47;98741.25;4984493;28;20755;-70
2022/10/26 09:24:35;;;;;;;35.60;19.08;;;;;;;32.38;36.60;98735.97;4987475;28;20628;-71
2022/10/26 09:27:34;;;;;;;39.83;18.48;;;;;;;32.42;36.09;98730.50;4985989;28;20057;-71
2022/10/26 09:30:20;;;;;;;37.78;19.25;;;;;;;32.25;35.79;98733.63;4964510;28;20162;-69
2022/10/26 09:33:19;;;;;;;39.97;21.35;;;;;;;32.32;35.30;98726.28;4971072;28;20524;-68
2022/10/26 09:36:29;;;;;;;39.28;18.90;;;;;;;32.20;34.89;98731.94;4970172;28;20046;-69
2022/10/26 09:39:30;;;;;;;37.60;19.88;;;;;;;32.23;37.05;98727.66;4935227;28;20046;-70
2022/10/26 09:42:44;;;;;;;35.08;20.00;;;;;;;32.17;36.73;98730.69;4985825;28;20054;-69
2022/10/26 09:46:01;;;;;;;41.33;19.98;;;;;;;32.25;36.24;98725.31;4991112;28;20096;-70
2022/10/26 09:49:04;;;;;;;39.38;18.70;;;;;;;32.26;33.47;98721.38;4987203;28;20069;-70
2022/10/26 09:51:54;;;;;;;48.23;21.30;;;;;;;32.12;34.73;98719.84;4985366;28;20112;-70
2022/10/26 09:54:36;;;;;;;39.17;19.73;;;;;;;31.93;37.55;98723.31;4987660;28;20058;-70
2022/10/26 09:57:26;;;;;;;38.28;19.63;;;;;;;31.74;37.92;98724.00;4986423;28;20430;-70
2022/10/26 10:00:20;;;;;;;31.77;19.50;;;;;;;31.68;44.60;98722.66;4989307;28;20058;-69
2022/10/26 10:03:24;;;;;;;37.40;19.35;;;;;;;31.72;42.69;98715.22;4986671;28;20053;-69
2022/10/26 10:06:19;;;;;;;35.58;19.15;;;;;;;31.73;39.28;98719.59;4987161;28;20050;-69
2022/10/26 10:09:15;;;;;;;36.42;18.80;;;;;;;31.60;39.88;98715.25;4971375;28;20132;-71
2022/10/26 10:12:01;;;;;;;32.60;19.95;;;;;;;31.57;37.86;98716.00;4986526;28;20066;-70
2022/10/26 10:15:03;;;;;;;43.42;20.25;;;;;;;31.66;39.29;98718.59;4969665;28;20565;-68
2022/10/26 10:17:54;;;;;;;36.72;20.00;;;;;;;31.62;39.30;98715.72;4987424;28;20062;-69
2022/10/26 10:20:44;;;;;;;34.40;19.98;;;;;;;31.55;38.34;98715.53;4986460;28;20065;-69
2022/10/26 10:23:32;;;;;;;35.13;21.60;;;;;;;31.59;39.47;98713.66;4986945;28;20046;-69
2022/10/26 10:26:21;;;;;;;36.58;19.05;;;;;;;31.42;39.51;98715.53;4987533;28;20497;-69
2022/10/26 10:29:15;;;;;;;40.30;21.27;;;;;;;31.26;37.89;98717.47;4971594;28;20721;-69
2022/10/26 10:32:06;;;;;;;34.92;20.27;;;;;;;31.11;39.90;98719.03;4986700;28;20046;-69
2022/10/26 10:34:54;;;;;;;42.88;22.25;;;;;;;31.18;42.40;98716.47;4987517;28;20061;-69
2022/10/26 10:37:49;;;;;;;40.03;22.30;;;;;;;31.08;41.95;98722.47;4955425;28;20046;-69
2022/10/26 10:40:38;;;;;;;37.13;22.35;;;;;;;31.07;41.89;98720.06;4985881;28;20053;-69
2022/10/26 10:43:28;;;;;;;40.17;23.25;;;;;;;30.86;42.73;98723.78;4988623;28;20050;-69
2022/10/26 10:46:18;;;;;;;45.45;22.75;;;;;;;30.91;43.79;98720.78;4982075;28;20327;-69
2022/10/26 10:49:11;;;;;;;42.67;23.13;;;;;;;30.91;42.35;98719.97;4987808;28;20046;-69
2022/10/26 10:51:55;;;;;;;42.58;23.20;;;;;;;30.90;46.75;98718.34;4963777;28;20050;-69
2022/10/26 10:54:45;;;;;;;40.42;22.58;;;;;;;30.82;43.50;98720.06;4987489;28;20054;-69
2022/10/26 10:58:00;;;;;;;50.30;23.10;;;;;;;30.74;44.03;98723.78;4982398;28;22261;-69
2022/10/26 11:00:53;;;;;;;44.17;23.58;;;;;;;30.69;44.26;98715.69;4991609;28;20444;-70
2022/10/26 11:03:42;;;;;;;48.78;22.98;;;;;;;30.64;45.09;98716.75;4985994;28;20910;-70
2022/10/26 11:06:34;;;;;;;38.25;23.85;;;;;;;30.56;44.83;98726.81;4986903;28;20116;-69
2022/10/26 11:09:21;;;;;;;50.53;25.23;;;;;;;30.44;44.99;98721.28;4986361;28;20058;-69
2022/10/26 11:12:33;;;;;;;57.08;25.83;;;;;;;30.36;47.49;98730.50;4984140;28;20042;-69
2022/10/26 11:15:25;;;;;;;56.85;26.30;;;;;;;30.28;45.79;98734.16;4969921;28;20047;-69
2022/10/26 11:18:34;;;;;;;49.55;25.95;;;;;;;30.24;45.26;98726.53;4984733;28;20417;-69
2022/10/26 11:21:30;;;;;;;48.15;25.38;;;;;;;30.16;46.16;98721.91;4984466;28;20046;-70
2022/10/26 11:24:22;;;;;;;50.67;24.73;;;;;;;30.13;46.43;98727.31;4965825;28;20053;-70
2022/10/26 11:27:25;;;;;;;53.72;25.08;;;;;;;29.92;47.92;98730.16;4990519;28;20417;-70
2022/10/26 11:30:21;;;;;;;66.60;25.13;;;;;;;29.92;48.73;98730.97;4988189;28;20058;-70
2022/10/26 11:33:25;;;;;;;48.00;25.30;;;;;;;29.83;48.39;98731.09;4972780;28;20132;-67
2022/10/26 11:36:25;;;;;;;45.95;25.77;;;;;;;29.68;49.07;98728.94;4989856;28;20077;-68
2022/10/26 11:39:54;;;;;;;55.35;25.45;;;;;;;29.59;49.63;98728.22;4988313;28;20112;-68
2022/10/26 11:42:49;;;;;;;51.60;25.92;;;;;;;29.40;48.90;98732.28;4979964;28;20054;-68
2022/10/26 11:45:45;;;;;;;53.65;26.75;;;;;;;29.35;51.42;98729.72;4991446;28;20042;-68
2022/10/26 11:48:53;;;;;;;65.72;26.17;;;;;;;29.27;51.17;98733.34;4989310;28;20140;-68
2022/10/26 11:51:38;;;;;;;57.00;26.92;;;;;;;29.11;53.88;98743.41;4988920;28;20064;-70
2022/10/26 11:54:39;;;;;;;52.85;28.15;;;;;;;28.97;53.12;98747.22;4986020;28;20054;-68
2022/10/26 11:57:24;;;;;;;66.43;28.25;;;;;;;28.95;52.08;98740.41;4981643;28;20057;-67
2022/10/26 12:00:19;;;;;;;51.72;25.60;;;;;;;28.82;53.61;98745.84;4988289;28;20062;-67
2022/10/26 12:03:22;;;;;;;60.30;28.00;;;;;;;28.74;52.70;98751.41;4958183;28;20043;-68
2022/10/26 12:05:58;;;;;;;53.63;27.17;;;;;;;28.62;54.34;98752.13;4972531;28;20149;-66
2022/10/26 12:09:19;;;;;;;60.70;27.48;;;;;;;28.59;53.86;98750.84;4985867;28;20142;-66
2022/10/26 12:12:27;;;;;;;59.17;28.33;;;;;;;28.50;52.63;98755.56;4984597;28;20046;-66
2022/10/26 12:15:26;;;;;;;;;;;;;;;28.56;55.38;98765.31;4985807;28;20050;-65
2022/10/26 12:18:51;;;;;;;44.50;25.58;;;;;;;28.33;54.75;98761.97;4987002;28;19930;-66
2022/10/26 12:21:41;;;;;;;;;;;;;;;28.34;53.28;98768.31;4985177;28;20144;-67
2022/10/26 12:24:38;;;;;;;52.53;26.33;;;;;;;28.23;54.27;98768.69;4986829;28;19937;-66
2022/10/26 12:27:51;;;;;;;56.55;28.73;;;;;;;28.19;53.58;98764.97;4984036;28;20494;-65
2022/10/26 12:30:39;;;;;;;54.95;28.60;;;;;;;28.05;54.07;98772.63;4629395;28;10001420;-66
2022/10/26 12:33:35;;;;;;;57.40;29.35;;;;;;;27.91;55.08;98778.34;4986147;28;20129;-64
2022/10/26 12:37:01;;;;;;;62.15;29.67;;;;;;;27.88;55.01;98782.56;4641548;28;10000193;-67
2022/10/26 12:39:39;;;;;;;58.58;28.27;;;;;;;27.81;54.70;98779.47;4984167;28;20481;-67
2022/10/26 12:42:29;;;;;;;60.58;29.00;;;;;;;27.77;54.87;98781.25;4982577;28;20538;-65
2022/10/26 12:45:24;;;;;;;52.55;28.40;;;;;;;27.78;54.79;98791.13;4967659;28;20049;-66
2022/10/26 12:48:47;;;;;;;52.85;29.25;;;;;;;27.62;54.40;98793.59;4984475;28;20127;-66
2022/10/26 12:51:40;;;;;;;52.63;28.88;;;;;;;27.66;53.29;98788.25;4944924;28;20116;-66
2022/10/26 12:54:43;;;;;;;52.55;29.45;;;;;;;27.69;54.19;98795.88;4983984;28;20621;-65
2022/10/26 12:57:44;;;;;;;55.38;29.70;;;;;;;27.61;55.28;98797.50;4983260;28;20566;-65
2022/10/26 13:00:45;;;;;;;62.53;29.63;;;;;;;27.57;55.78;98796.50;4978370;28;20054;-67
2022/10/26 13:03:39;;;;;;;63.70;29.70;;;;;;;27.58;55.74;98792.63;4978397;28;21279;-69
2022/10/26 13:06:47;;;;;;;66.75;29.48;;;;;;;27.53;55.17;98801.88;4981944;28;20434;-68
2022/10/26 13:09:43;;;;;;;63.67;31.75;;;;;;;27.46;57.02;98807.06;4984799;28;20081;-68
2022/10/26 13:12:55;;;;;;;67.38;30.75;;;;;;;27.44;57.59;98808.50;4966907;28;20545;-69